Morse, Louisiana
Current Conditions -  °F | °C
As of 5:35 PM on Friday 31 Oct 2014 (Local Time) from K3R7 Reporting Station
Clear Clear  
Wind Chill: 70°   Ceiling: Unl
Heat Index: 70°   Visibility: 10mi
Dew Point: 46°   Wind: 10mph
Humidity: 42%   Direction: 350°N
Pressure: 30.12"   Gusts: NA
Location:  30.12°N, 92.5°W
Report Text: K3R7 312235Z AUTO 35009KT 10SM CLR 21/08 A3012 RMK AO2 T02110078
Loading
Personal Weather Stations






























Interactive Weather Map
Tropical Storm Tracking
New forecast layout! Learn more

10-Day Weather Forecast

Advertisements
Track Severe Weather on mobile